Ottawa, IL

9:06 PM CST on December 24, 2014 (GMT -0600)
Pontiac Municipal | Change Station
CLOSE
Current Station
Airport
Location: Pontiac,
Elevation: 659 ft
Nearby Weather Stations

Elev 659 ft 40.92 °N, 88.62 °W | Updated 11 minutes ago

Overcast
Overcast
37 °F
Feels Like 28 °F
N
14
Wind Variable Wind from West

Today
High -- | Low -- °F
--% Chance of Precip.
Yesterday
High -- | Low -- °F
Precip. -- in
7:19 AM 4:30 PM
Waxing Crescent, 12% visible
Pressure 29.66 in
Visibility 10.0 miles
Clouds Overcast 1500 ft
Windchill 28 °F
Dew Point 34 °F
Humidity 91%
Rainfall 0.00 in
Snow Depth Not available.
UV 0 out of 12
Pollen .10 out of 12
Air Quality Not available.
Flu Activity Not available.
METAR KPNT 250255Z AUTO 28012KT 10SM OVC015 03/01 A2966 RMK AO2 T00280014

More Conditions Fewer Conditions

Pressure 29.66 in
Visibility 10.0 miles
Clouds Overcast 1500 ft
Windchill 28 °F
Dew Point 34 °F
Humidity 91%
Rainfall 0.00 in
Snow Depth Not available.
UV 0 out of 12
Pollen .10 out of 12
Air Quality Not available.
Flu Activity Not available.
METAR KPNT 250255Z AUTO 28012KT 10SM OVC015 03/01 A2966 RMK AO2 T00280014

More Conditions Fewer Conditions

10-Day Weather Forecast

Almanac

Astronomy

Dec. 24, 2014 Rise Set
Actual Time
Civil Twilight
Nautical Twilight
Astronomical Twilight
Moon
Length of Visible Light
Length of Day
Tomorrow will be .
, % of the Moon is Illuminated

Today's Extremes

State Highs State Lows

Community

WunderPhotos

Upload Photos

1,780,222 photos uploaded!

WunderBlogs® & News

Nearby

Air Quality

  Air Quality AQ Index Pollutant
Not available.

Snow Depth

Station Depth Elevation

Earthquake Activity

City Distance Mag. Time & Date
Minimum magnitude displayed is 2.5.

Coastal Water Temperatures

Place Temperature

Nearby Weather Stations